createdAt,value
2022-08-11T00:01:54.288Z,91.40
2022-08-11T00:04:23.841Z,92.00
2022-08-11T00:06:53.745Z,92.80
2022-08-11T00:09:22.941Z,93.00
2022-08-11T00:11:52.361Z,93.00
2022-08-11T00:14:21.570Z,93.20
2022-08-11T00:16:56.847Z,93.80
2022-08-11T00:20:13.824Z,93.90
2022-08-11T00:22:21.485Z,94.60
2022-08-11T00:24:53.972Z,94.90
2022-08-11T00:27:32.923Z,95.20
2022-08-11T00:30:01.095Z,95.70
2022-08-11T00:32:29.761Z,96.50
2022-08-11T00:35:50.039Z,96.60
2022-08-11T00:37:50.472Z,96.90
2022-08-11T00:40:22.067Z,97.40
2022-08-11T00:42:56.461Z,97.80
2022-08-11T00:45:27.014Z,98.50
2022-08-11T00:48:00.216Z,98.70
2022-08-11T00:50:30.722Z,99.90
2022-08-11T00:53:13.745Z,99.90
2022-08-11T00:56:10.085Z,99.90
2022-08-11T00:58:56.523Z,99.90
2022-08-11T01:01:31.560Z,99.90
2022-08-11T01:04:26.502Z,99.90
2022-08-11T01:07:09.408Z,99.90
2022-08-11T01:09:49.793Z,99.90
2022-08-11T01:12:22.862Z,99.90
2022-08-11T01:15:13.950Z,99.90
2022-08-11T01:18:02.946Z,99.90
2022-08-11T01:21:01.090Z,99.90
2022-08-11T01:23:47.416Z,99.90
2022-08-11T01:26:34.553Z,99.90
2022-08-11T01:29:26.089Z,99.90
2022-08-11T01:32:27.800Z,99.90
2022-08-11T01:35:18.766Z,99.90
2022-08-11T01:38:04.699Z,99.90
2022-08-11T01:40:59.503Z,99.90
2022-08-11T01:44:04.048Z,99.90
2022-08-11T01:46:44.845Z,99.90
2022-08-11T01:50:06.515Z,99.90
2022-08-11T01:52:14.503Z,99.90
2022-08-11T01:54:45.509Z,99.90
2022-08-11T01:57:21.286Z,99.90
2022-08-11T01:59:52.699Z,99.90
2022-08-11T02:02:46.072Z,99.90
2022-08-11T02:05:25.063Z,99.90
2022-08-11T02:07:57.280Z,99.90
2022-08-11T02:10:50.675Z,99.90
2022-08-11T02:13:33.390Z,99.90
2022-08-11T02:16:11.957Z,99.90
2022-08-11T02:19:00.731Z,99.90
2022-08-11T02:21:48.685Z,99.90
2022-08-11T02:24:22.231Z,99.90
2022-08-11T02:26:51.598Z,99.90
2022-08-11T02:29:20.656Z,99.90
2022-08-11T02:32:30.202Z,99.90
2022-08-11T02:35:05.146Z,99.90
2022-08-11T02:37:38.654Z,99.90
2022-08-11T02:40:13.041Z,99.90
2022-08-11T02:42:43.740Z,99.90
2022-08-11T02:45:19.129Z,99.90
2022-08-11T02:48:06.951Z,99.90
2022-08-11T02:50:38.189Z,99.90
2022-08-11T02:53:09.262Z,99.90
2022-08-11T02:55:56.692Z,99.90
2022-08-11T02:58:32.192Z,99.90
2022-08-11T03:01:06.305Z,99.90
2022-08-11T03:03:39.053Z,99.90
2022-08-11T03:06:10.012Z,99.90
2022-08-11T03:08:51.406Z,99.90
2022-08-11T03:11:41.218Z,99.90
2022-08-11T03:14:31.780Z,99.90
2022-08-11T03:17:01.814Z,99.90
2022-08-11T03:19:37.004Z,99.90
2022-08-11T03:22:09.458Z,99.90
2022-08-11T03:24:46.573Z,99.90
2022-08-11T03:27:25.139Z,99.90
2022-08-11T03:30:03.017Z,99.90
2022-08-11T03:32:33.979Z,99.90
2022-08-11T03:35:01.561Z,99.90
2022-08-11T03:37:52.493Z,99.90
2022-08-11T03:40:51.884Z,99.90
2022-08-11T03:43:28.402Z,99.90
2022-08-11T03:45:59.946Z,99.90
2022-08-11T03:48:30.823Z,99.90
2022-08-11T03:51:09.220Z,99.90
2022-08-11T03:53:45.507Z,99.90
2022-08-11T03:56:43.708Z,99.90
2022-08-11T03:59:28.775Z,99.90
2022-08-11T04:02:06.786Z,99.90
2022-08-11T04:04:52.447Z,99.90
2022-08-11T04:07:28.963Z,99.90
2022-08-11T04:10:17.465Z,99.90
2022-08-11T04:12:58.403Z,99.90
2022-08-11T04:15:56.411Z,99.90
2022-08-11T04:18:41.322Z,99.90
2022-08-11T04:21:12.983Z,99.90
2022-08-11T04:24:35.624Z,99.90
2022-08-11T04:27:14.479Z,99.90
2022-08-11T04:30:03.649Z,99.90
2022-08-11T04:32:45.241Z,99.90
2022-08-11T04:35:18.661Z,99.90
2022-08-11T04:38:04.530Z,99.90
2022-08-11T04:40:50.113Z,99.90
2022-08-11T04:44:02.530Z,99.90
2022-08-11T04:46:57.882Z,99.90
2022-08-11T04:50:02.484Z,99.90
2022-08-11T04:52:59.172Z,99.90
2022-08-11T04:55:59.657Z,99.90
2022-08-11T04:58:55.085Z,99.90
2022-08-11T05:01:44.285Z,99.90
2022-08-11T05:04:43.449Z,99.90
2022-08-11T05:07:21.954Z,99.90
2022-08-11T05:10:02.585Z,99.90
2022-08-11T05:12:32.339Z,99.90
2022-08-11T05:15:18.286Z,99.90
2022-08-11T05:18:12.741Z,99.90
2022-08-11T05:21:04.994Z,99.90
2022-08-11T05:23:52.761Z,99.90
2022-08-11T05:26:47.077Z,99.90
2022-08-11T05:29:45.924Z,99.90
2022-08-11T05:32:31.986Z,99.90
2022-08-11T05:35:03.073Z,99.90
2022-08-11T05:37:34.717Z,99.90
2022-08-11T05:40:24.510Z,99.90
2022-08-11T05:43:13.672Z,99.90
2022-08-11T05:46:04.721Z,99.90
2022-08-11T05:48:54.894Z,99.90
2022-08-11T05:51:51.954Z,99.90
2022-08-11T05:54:41.462Z,99.90
2022-08-11T05:57:10.062Z,99.90
2022-08-11T06:00:01.939Z,99.90
2022-08-11T06:02:30.448Z,99.90
2022-08-11T06:04:59.172Z,99.90
2022-08-11T06:07:29.273Z,99.90
2022-08-11T06:10:15.651Z,99.90
2022-08-11T06:12:43.819Z,99.90
2022-08-11T06:15:14.379Z,99.90
2022-08-11T06:17:45.690Z,99.90
2022-08-11T06:20:14.795Z,99.90
2022-08-11T06:22:44.189Z,99.90
2022-08-11T06:25:12.594Z,99.90
2022-08-11T06:27:43.222Z,99.90
2022-08-11T06:30:14.482Z,99.90
2022-08-11T06:32:45.665Z,99.90
2022-08-11T06:35:18.927Z,99.90
2022-08-11T06:37:50.413Z,99.90
2022-08-11T06:40:30.078Z,99.90
2022-08-11T06:43:00.095Z,99.90
2022-08-11T06:45:31.258Z,99.90
2022-08-11T06:48:01.266Z,99.90
2022-08-11T06:50:48.176Z,99.90
2022-08-11T06:53:17.469Z,98.80
2022-08-11T06:56:04.530Z,96.40
2022-08-11T06:58:51.061Z,93.20
2022-08-11T07:01:23.136Z,91.40
2022-08-11T07:03:58.463Z,87.50
2022-08-11T07:06:41.486Z,85.60
2022-08-11T07:10:00.474Z,86.00
2022-08-11T07:12:56.703Z,86.00
2022-08-11T07:16:11.405Z,83.90
2022-08-11T07:18:52.657Z,81.90
2022-08-11T07:22:00.282Z,77.50
2022-08-11T07:24:59.737Z,73.80
2022-08-11T07:27:50.052Z,73.00
2022-08-11T07:30:18.464Z,70.10
2022-08-11T07:32:49.303Z,68.40
2022-08-11T07:35:18.613Z,69.40
2022-08-11T07:37:50.878Z,69.50
2022-08-11T07:40:30.184Z,69.50
2022-08-11T07:42:59.360Z,68.90
2022-08-11T07:45:45.518Z,67.00
2022-08-11T07:48:31.779Z,65.90
2022-08-11T07:51:17.826Z,63.90
2022-08-11T07:54:03.141Z,64.40
2022-08-11T07:56:54.404Z,62.30
2022-08-11T08:00:04.003Z,62.30
2022-08-11T08:02:46.944Z,61.00
2022-08-11T08:05:33.390Z,60.50
2022-08-11T08:08:18.875Z,61.60
2022-08-11T08:11:05.732Z,60.50
2022-08-11T08:13:51.807Z,59.70
2022-08-11T08:16:37.627Z,59.30
2022-08-11T08:19:05.847Z,58.60
2022-08-11T08:21:34.094Z,58.30
2022-08-11T08:24:02.241Z,56.50
2022-08-11T08:26:57.789Z,56.10
2022-08-11T08:29:43.985Z,55.10
2022-08-11T08:32:12.553Z,55.20
2022-08-11T08:34:41.373Z,55.90
2022-08-11T08:37:16.199Z,54.70
2022-08-11T08:39:58.673Z,54.40
2022-08-11T08:42:29.604Z,55.50
2022-08-11T08:45:00.027Z,54.40
2022-08-11T08:47:41.537Z,54.20
2022-08-11T08:50:16.571Z,53.30
2022-08-11T08:52:47.997Z,53.70
2022-08-11T08:55:18.727Z,54.10
2022-08-11T08:57:49.711Z,53.90
2022-08-11T09:00:22.991Z,52.70
2022-08-11T09:02:52.662Z,53.40
2022-08-11T09:05:21.435Z,53.40
2022-08-11T09:07:51.465Z,52.20
2022-08-11T09:10:20.904Z,54.10
2022-08-11T09:12:51.673Z,53.50
2022-08-11T09:15:20.256Z,53.30
2022-08-11T09:17:49.377Z,52.60
2022-08-11T09:20:19.618Z,53.90
2022-08-11T09:26:13.603Z,51.70
2022-08-11T09:28:45.066Z,50.30
2022-08-11T09:31:13.727Z,51.80
2022-08-11T09:33:42.849Z,51.90
2022-08-11T09:36:28.786Z,51.70
2022-08-11T09:39:14.877Z,51.70
2022-08-11T09:42:01.814Z,50.80
2022-08-11T09:44:53.066Z,50.80
2022-08-11T09:47:24.493Z,51.60
2022-08-11T09:49:54.039Z,50.70
2022-08-11T09:52:23.060Z,50.10
2022-08-11T09:54:52.328Z,50.80
2022-08-11T09:57:38.574Z,50.70
2022-08-11T10:00:13.354Z,50.80
2022-08-11T10:02:43.751Z,50.90
2022-08-11T10:05:30.482Z,51.30
2022-08-11T10:07:58.821Z,51.10
2022-08-11T10:10:27.078Z,50.00
2022-08-11T10:12:57.728Z,50.50
2022-08-11T10:15:38.208Z,50.20
2022-08-11T10:18:27.468Z,51.00
2022-08-11T10:20:58.785Z,51.70
2022-08-11T10:24:01.296Z,51.20
2022-08-11T10:26:55.470Z,50.20
2022-08-11T10:29:45.163Z,49.10
2022-08-11T10:32:49.323Z,49.70
2022-08-11T10:35:27.228Z,49.30
2022-08-11T10:38:08.003Z,51.00
2022-08-11T10:40:40.073Z,49.50
2022-08-11T10:43:10.671Z,48.90
2022-08-11T10:45:56.832Z,48.30
2022-08-11T10:48:26.989Z,47.40
2022-08-11T10:51:13.266Z,48.00
2022-08-11T10:54:00.834Z,48.50
2022-08-11T10:56:47.413Z,49.60
2022-08-11T10:59:15.878Z,49.40
2022-08-11T11:01:44.750Z,49.60
2022-08-11T11:04:15.678Z,49.30
2022-08-11T11:06:49.944Z,48.90
2022-08-11T11:09:19.573Z,48.90
2022-08-11T11:12:06.976Z,48.60
2022-08-11T11:14:58.250Z,48.70
2022-08-11T11:17:49.087Z,49.10
2022-08-11T11:20:37.372Z,48.80
2022-08-11T11:23:09.106Z,49.10
2022-08-11T11:26:06.452Z,47.10
2022-08-11T11:28:40.437Z,47.50
2022-08-11T11:31:15.829Z,48.50
2022-08-11T11:34:06.686Z,48.00
2022-08-11T11:36:46.150Z,47.20
2022-08-11T11:39:14.275Z,47.70
2022-08-11T11:41:43.120Z,49.30
2022-08-11T11:44:13.161Z,47.40
2022-08-11T11:46:41.482Z,47.30
2022-08-11T11:49:14.016Z,47.20
2022-08-11T11:51:50.074Z,47.60
2022-08-11T11:54:18.838Z,45.90
2022-08-11T11:56:47.311Z,47.70
2022-08-11T11:59:33.514Z,48.30
2022-08-11T12:02:11.657Z,48.00
2022-08-11T12:04:43.071Z,48.60
2022-08-11T12:07:30.710Z,49.00
2022-08-11T12:09:59.557Z,48.10
2022-08-11T12:12:45.099Z,48.00
2022-08-11T12:15:13.257Z,48.60
2022-08-11T12:17:41.702Z,48.80
2022-08-11T12:20:31.722Z,48.80
2022-08-11T12:23:17.106Z,50.00
2022-08-11T12:26:26.417Z,48.40
2022-08-11T12:28:51.776Z,48.80
2022-08-11T12:31:25.988Z,49.00
2022-08-11T12:33:56.173Z,47.90
2022-08-11T12:36:24.391Z,49.90
2022-08-11T12:38:55.005Z,48.80
2022-08-11T12:41:41.473Z,49.70
2022-08-11T12:44:27.916Z,48.30
2022-08-11T12:46:56.491Z,49.30
2022-08-11T12:49:45.507Z,47.80
2022-08-11T12:52:20.121Z,48.10
2022-08-11T12:54:57.650Z,47.90
2022-08-11T12:57:45.715Z,48.10
2022-08-11T13:00:31.743Z,49.30
2022-08-11T13:03:17.585Z,49.00
2022-08-11T13:05:47.398Z,49.30
2022-08-11T13:08:15.881Z,49.00
2022-08-11T13:11:03.516Z,49.90
2022-08-11T13:13:55.600Z,49.10
2022-08-11T13:16:20.810Z,49.70
2022-08-11T13:18:50.319Z,47.80
2022-08-11T13:21:20.838Z,49.80
2022-08-11T13:23:59.510Z,48.80
2022-08-11T13:26:46.776Z,49.30
2022-08-11T13:29:18.175Z,49.20
2022-08-11T13:31:46.787Z,49.30
2022-08-11T13:34:15.973Z,47.70
2022-08-11T13:36:44.692Z,49.90
2022-08-11T13:39:13.757Z,48.90
2022-08-11T13:41:44.799Z,49.60
2022-08-11T13:44:15.869Z,47.80
2022-08-11T13:46:46.419Z,50.00
2022-08-11T13:49:17.093Z,49.90
2022-08-11T13:51:45.345Z,49.70
2022-08-11T13:54:17.699Z,49.40
2022-08-11T13:56:48.186Z,49.80
2022-08-11T13:59:16.966Z,49.10
2022-08-11T14:02:21.285Z,49.20
2022-08-11T14:04:40.519Z,49.10
2022-08-11T14:07:10.161Z,50.20
2022-08-11T14:09:39.174Z,50.80
2022-08-11T14:12:28.657Z,51.50
2022-08-11T14:15:04.436Z,53.40
2022-08-11T14:17:47.063Z,53.00
2022-08-11T14:20:39.450Z,53.20
2022-08-11T14:23:05.463Z,54.80
2022-08-11T14:26:00.156Z,55.50
2022-08-11T14:28:32.952Z,56.60
2022-08-11T14:31:05.419Z,58.00
2022-08-11T14:33:58.806Z,58.50
2022-08-11T14:36:22.829Z,57.90
2022-08-11T14:38:51.126Z,58.80
2022-08-11T14:41:36.794Z,57.60
2022-08-11T14:44:24.630Z,59.00
2022-08-11T14:47:23.089Z,57.40
2022-08-11T14:50:10.097Z,57.90
2022-08-11T14:52:41.470Z,58.20
2022-08-11T14:55:26.879Z,58.80
2022-08-11T14:57:57.045Z,59.40
2022-08-11T15:00:27.183Z,60.00
2022-08-11T15:03:10.652Z,60.70
2022-08-11T15:05:55.996Z,60.00
2022-08-11T15:08:47.152Z,59.50
2022-08-11T15:11:29.641Z,59.40
2022-08-11T15:13:58.101Z,61.70
2022-08-11T15:16:45.782Z,61.30
2022-08-11T15:19:14.214Z,61.20
2022-08-11T15:22:00.145Z,61.00
2022-08-11T15:24:30.823Z,59.90
2022-08-11T15:27:18.134Z,61.10
2022-08-11T15:30:05.106Z,61.30
2022-08-11T15:32:52.175Z,60.80
2022-08-11T15:35:39.359Z,61.50
2022-08-11T15:38:08.222Z,63.00
2022-08-11T15:40:55.987Z,61.80
2022-08-11T15:43:44.692Z,63.60
2022-08-11T15:46:14.143Z,64.00
2022-08-11T15:48:46.332Z,62.00
2022-08-11T15:51:17.724Z,63.40
2022-08-11T15:53:56.642Z,61.90
2022-08-11T15:56:27.143Z,61.40
2022-08-11T15:59:40.990Z,62.90
2022-08-11T16:02:20.290Z,63.50
2022-08-11T16:04:50.194Z,64.00
2022-08-11T16:07:19.122Z,64.60
2022-08-11T16:09:52.634Z,64.00
2022-08-11T16:12:24.535Z,64.70
2022-08-11T16:15:11.268Z,64.20
2022-08-11T16:17:43.872Z,64.70
2022-08-11T16:20:14.377Z,65.40
2022-08-11T16:23:01.464Z,65.80
2022-08-11T16:27:02.681Z,64.70
2022-08-11T16:28:20.849Z,64.50
2022-08-11T16:30:51.338Z,64.50
2022-08-11T16:33:48.504Z,64.80
2022-08-11T16:36:28.029Z,65.50
2022-08-11T16:38:56.610Z,66.60
2022-08-11T16:41:44.573Z,66.90
2022-08-11T16:44:32.732Z,67.30
2022-08-11T16:47:07.016Z,67.50
2022-08-11T16:49:37.310Z,68.20
2022-08-11T16:52:11.873Z,68.20
2022-08-11T16:54:40.685Z,68.30
2022-08-11T16:57:31.819Z,67.90
2022-08-11T17:00:01.959Z,68.30
2022-08-11T17:02:50.664Z,69.40
2022-08-11T17:05:33.604Z,70.10
2022-08-11T17:08:25.965Z,69.80
2022-08-11T17:11:12.136Z,69.90
2022-08-11T17:13:42.472Z,69.10
2022-08-11T17:16:13.102Z,68.60
2022-08-11T17:18:45.872Z,68.90
2022-08-11T17:21:16.246Z,68.20
2022-08-11T17:23:47.148Z,68.40
2022-08-11T17:26:19.044Z,69.60
2022-08-11T17:28:51.587Z,68.90
2022-08-11T17:31:38.158Z,69.00
2022-08-11T17:34:24.894Z,68.10
2022-08-11T17:36:54.815Z,68.90
2022-08-11T17:39:25.369Z,68.80
2022-08-11T17:42:11.308Z,69.60
2022-08-11T17:44:57.447Z,69.20
2022-08-11T17:47:42.524Z,69.80
2022-08-11T17:50:17.269Z,69.40
2022-08-11T17:53:04.891Z,69.40
2022-08-11T17:55:53.508Z,70.00
2022-08-11T17:58:39.520Z,70.30
2022-08-11T18:01:09.948Z,70.20
2022-08-11T18:03:40.038Z,70.40
2022-08-11T18:06:12.350Z,70.80
2022-08-11T18:09:01.839Z,71.10
2022-08-11T18:12:10.578Z,71.10
2022-08-11T18:14:56.738Z,71.00
2022-08-11T18:17:42.376Z,71.30
2022-08-11T18:20:27.953Z,72.40
2022-08-11T18:23:14.446Z,72.20
2022-08-11T18:26:02.449Z,72.40
2022-08-11T18:28:51.991Z,73.60
2022-08-11T18:31:39.389Z,72.00
2022-08-11T18:34:25.982Z,72.20
2022-08-11T18:37:21.769Z,73.00
2022-08-11T18:40:12.281Z,73.50
2022-08-11T18:42:59.189Z,72.60
2022-08-11T18:45:46.554Z,73.70
2022-08-11T18:48:41.069Z,75.00
2022-08-11T18:51:29.610Z,74.00
2022-08-11T18:54:23.527Z,73.40
2022-08-11T18:57:10.172Z,74.50
2022-08-11T18:59:57.467Z,74.70
2022-08-11T19:02:48.580Z,75.90
2022-08-11T19:06:35.542Z,73.70
2022-08-11T19:08:42.335Z,75.10
2022-08-11T19:11:29.823Z,75.40
2022-08-11T19:14:16.224Z,76.80
2022-08-11T19:17:02.912Z,77.10
2022-08-11T19:19:50.473Z,76.40
2022-08-11T19:22:36.637Z,75.60
2022-08-11T19:25:25.536Z,76.00
2022-08-11T19:28:12.285Z,77.40
2022-08-11T19:30:58.351Z,77.40
2022-08-11T19:34:03.091Z,77.70
2022-08-11T19:36:51.160Z,77.50
2022-08-11T19:39:38.004Z,77.00
2022-08-11T19:42:24.363Z,76.70
2022-08-11T19:45:09.691Z,76.60
2022-08-11T19:48:08.159Z,77.80
2022-08-11T19:51:01.210Z,78.10
2022-08-11T19:53:52.064Z,78.30
2022-08-11T19:56:38.204Z,77.90
2022-08-11T19:59:23.877Z,78.00
2022-08-11T20:02:13.409Z,78.30
2022-08-11T20:05:00.347Z,78.60
2022-08-11T20:07:45.933Z,79.70
2022-08-11T20:10:35.582Z,81.10
2022-08-11T20:13:21.943Z,80.00
2022-08-11T20:16:07.878Z,80.00
2022-08-11T20:18:53.694Z,81.50
2022-08-11T20:21:39.952Z,81.10
2022-08-11T20:24:25.958Z,80.60
2022-08-11T20:27:24.453Z,80.40
2022-08-11T20:30:11.440Z,80.00
2022-08-11T20:32:58.220Z,80.30
2022-08-11T20:35:44.565Z,79.80
2022-08-11T20:38:30.487Z,79.80
2022-08-11T20:41:16.531Z,80.00
2022-08-11T20:44:06.428Z,77.60
2022-08-11T20:50:03.066Z,78.10
2022-08-11T20:52:48.640Z,80.80
2022-08-11T20:55:51.259Z,82.80
2022-08-11T20:59:13.417Z,81.80
2022-08-11T21:01:51.998Z,82.60
2022-08-11T21:04:37.840Z,83.60
2022-08-11T21:07:41.413Z,84.90
2022-08-11T21:10:28.884Z,85.00
2022-08-11T21:13:26.458Z,85.90
2022-08-11T21:16:26.049Z,86.60
2022-08-11T21:19:15.776Z,86.40
2022-08-11T21:22:03.532Z,86.60
2022-08-11T21:24:50.803Z,86.40
2022-08-11T21:27:38.442Z,86.90
2022-08-11T21:30:24.497Z,87.40
2022-08-11T21:33:10.178Z,87.60
2022-08-11T21:35:57.247Z,88.70
2022-08-11T21:38:43.468Z,88.10
2022-08-11T21:41:29.263Z,88.40
2022-08-11T21:44:15.534Z,87.90
2022-08-11T21:47:00.911Z,87.30
2022-08-11T21:49:47.427Z,87.20
2022-08-11T21:52:34.616Z,87.70
2022-08-11T21:55:20.281Z,90.00
2022-08-11T21:58:05.970Z,90.30
2022-08-11T22:00:52.219Z,90.30
2022-08-11T22:03:49.343Z,90.80
2022-08-11T22:06:36.102Z,91.40
2022-08-11T22:09:22.883Z,91.70
2022-08-11T22:12:41.265Z,91.40
2022-08-11T22:15:14.342Z,92.20
2022-08-11T22:17:59.786Z,91.80
2022-08-11T22:20:45.975Z,92.10
2022-08-11T22:23:35.250Z,92.40
2022-08-11T22:26:24.534Z,92.50
2022-08-11T22:29:10.586Z,92.70
2022-08-11T22:31:56.341Z,93.00
2022-08-11T22:34:52.552Z,93.60
2022-08-11T22:37:40.284Z,94.30
2022-08-11T22:40:26.637Z,94.40
2022-08-11T22:43:13.311Z,94.60
2022-08-11T22:45:58.859Z,94.20
2022-08-11T22:48:44.845Z,94.50
2022-08-11T22:51:31.788Z,94.80
2022-08-11T22:54:18.825Z,95.00
2022-08-11T22:57:04.413Z,95.10
2022-08-11T22:59:51.209Z,95.10
2022-08-11T23:02:36.570Z,94.40
2022-08-11T23:05:22.273Z,93.30
2022-08-11T23:08:08.150Z,92.10
2022-08-11T23:10:53.816Z,91.90
2022-08-11T23:13:39.641Z,91.70
2022-08-11T23:16:26.979Z,91.50
2022-08-11T23:19:13.205Z,90.90
2022-08-11T23:21:58.621Z,90.90
2022-08-11T23:24:44.869Z,90.90
2022-08-11T23:27:32.125Z,91.00
2022-08-11T23:30:19.286Z,90.90
2022-08-11T23:33:08.040Z,90.70
2022-08-11T23:35:55.518Z,91.00
2022-08-11T23:38:42.118Z,91.20
2022-08-11T23:41:27.759Z,91.80
2022-08-11T23:44:13.914Z,91.70
2022-08-11T23:46:59.838Z,92.30
2022-08-11T23:49:47.028Z,92.40
2022-08-11T23:52:33.484Z,92.40
2022-08-11T23:55:19.305Z,92.40
2022-08-11T23:58:05.125Z,92.90
